createdAt,value
2019-05-22T00:02:41.423Z,67.77
2019-05-22T00:05:32.774Z,71.40
2019-05-22T00:08:23.847Z,69.13
2019-05-22T00:11:08.748Z,68.33
2019-05-22T00:13:59.657Z,75.97
2019-05-22T00:16:49.658Z,70.80
2019-05-22T00:19:38.695Z,68.47
2019-05-22T00:22:33.460Z,69.70
2019-05-22T00:25:26.570Z,72.03
2019-05-22T00:28:16.926Z,73.40
2019-05-22T00:31:01.453Z,71.07
2019-05-22T00:33:50.655Z,71.90
2019-05-22T00:36:40.870Z,63.80
2019-05-22T00:39:30.635Z,65.73
2019-05-22T00:42:20.846Z,75.90
2019-05-22T00:45:12.779Z,75.00
2019-05-22T00:48:03.227Z,69.03
2019-05-22T00:51:16.215Z,76.30
2019-05-22T00:54:38.403Z,69.27
2019-05-22T00:57:32.932Z,69.60
2019-05-22T01:00:29.003Z,68.50
2019-05-22T01:03:21.239Z,70.10
2019-05-22T01:06:12.881Z,76.50
2019-05-22T01:09:07.841Z,64.10
2019-05-22T01:11:56.800Z,71.03
2019-05-22T01:14:49.944Z,60.10
2019-05-22T01:17:41.080Z,67.17
2019-05-22T01:20:32.206Z,72.97
2019-05-22T01:23:23.584Z,75.33
2019-05-22T01:26:19.181Z,66.60
2019-05-22T01:29:09.031Z,81.33
2019-05-22T01:32:00.336Z,63.10
2019-05-22T01:34:50.968Z,67.23
2019-05-22T01:37:42.519Z,66.77
2019-05-22T01:40:47.006Z,60.93
2019-05-22T01:43:37.347Z,58.23
2019-05-22T01:46:28.751Z,62.97
2019-05-22T01:49:18.465Z,61.73
2019-05-22T01:52:09.324Z,61.07
2019-05-22T01:54:59.807Z,55.33
2019-05-22T01:57:49.892Z,55.13
2019-05-22T02:00:41.440Z,58.53
2019-05-22T02:03:32.508Z,50.70
2019-05-22T02:06:23.359Z,57.70
2019-05-22T02:09:26.782Z,48.00
2019-05-22T02:12:23.488Z,56.30
2019-05-22T02:15:12.832Z,53.40
2019-05-22T02:18:05.029Z,48.00
2019-05-22T02:20:53.947Z,47.60
2019-05-22T02:23:25.045Z,48.83
2019-05-22T02:26:16.429Z,51.20
2019-05-22T02:29:06.404Z,50.47
2019-05-22T02:31:58.029Z,53.20
2019-05-22T02:34:47.895Z,49.10
2019-05-22T02:37:38.097Z,43.00
2019-05-22T02:40:31.425Z,41.47
2019-05-22T02:43:12.145Z,42.20
2019-05-22T02:46:00.670Z,46.50
2019-05-22T02:48:51.140Z,47.63
2019-05-22T02:51:41.293Z,40.10
2019-05-22T02:54:31.558Z,47.70
2019-05-22T02:57:21.994Z,44.90
2019-05-22T03:00:12.647Z,41.30
2019-05-22T03:03:02.877Z,43.07
2019-05-22T03:05:54.689Z,44.67
2019-05-22T03:09:20.560Z,47.80
2019-05-22T03:12:16.164Z,47.30
2019-05-22T03:15:09.152Z,45.20
2019-05-22T03:18:04.980Z,48.63
2019-05-22T03:20:53.728Z,47.57
2019-05-22T03:23:44.966Z,45.30
2019-05-22T03:26:47.985Z,48.13
2019-05-22T03:29:51.360Z,46.63
2019-05-22T03:32:44.621Z,53.87
2019-05-22T03:35:42.396Z,51.23
2019-05-22T03:38:32.652Z,51.40
2019-05-22T03:41:22.549Z,49.67
2019-05-22T03:44:13.909Z,47.27
2019-05-22T03:47:04.495Z,44.27
2019-05-22T03:49:55.480Z,49.67
2019-05-22T03:52:28.943Z,48.13
2019-05-22T03:55:18.129Z,44.53
2019-05-22T03:58:07.518Z,42.93
2019-05-22T04:00:58.103Z,41.97
2019-05-22T04:03:48.363Z,42.00
2019-05-22T04:06:20.701Z,42.10
2019-05-22T04:09:22.787Z,37.33
2019-05-22T04:12:13.221Z,36.53
2019-05-22T04:15:04.200Z,40.93
2019-05-22T04:17:53.233Z,39.20
2019-05-22T04:20:42.569Z,35.70
2019-05-22T04:23:32.763Z,38.50
2019-05-22T04:26:23.628Z,38.70
2019-05-22T04:29:13.037Z,42.20
2019-05-22T04:32:23.346Z,38.87
2019-05-22T04:35:17.788Z,44.53
2019-05-22T04:38:07.288Z,37.13
2019-05-22T04:40:53.198Z,35.37
2019-05-22T04:43:26.515Z,30.30
2019-05-22T04:45:59.195Z,30.23
2019-05-22T04:48:31.407Z,36.73
2019-05-22T04:51:41.218Z,35.17
2019-05-22T04:54:11.421Z,35.07
2019-05-22T04:57:02.145Z,38.63
2019-05-22T04:59:51.361Z,36.43
2019-05-22T05:02:40.799Z,34.87
2019-05-22T05:05:11.714Z,43.47
2019-05-22T05:07:44.023Z,37.67
2019-05-22T05:10:33.787Z,40.77
2019-05-22T05:13:24.188Z,38.17
2019-05-22T05:16:13.365Z,38.00
2019-05-22T05:19:03.140Z,36.33
2019-05-22T05:21:53.232Z,40.57
2019-05-22T05:24:42.374Z,34.67
2019-05-22T05:27:32.709Z,41.50
2019-05-22T05:30:23.666Z,35.67
2019-05-22T05:33:14.013Z,32.63
2019-05-22T05:36:04.445Z,34.07
2019-05-22T05:38:54.894Z,38.67
2019-05-22T05:41:44.843Z,33.33
2019-05-22T05:44:33.900Z,35.13
2019-05-22T05:47:24.005Z,32.30
2019-05-22T05:50:14.739Z,36.50
2019-05-22T05:53:06.540Z,30.00
2019-05-22T05:56:10.619Z,30.30
2019-05-22T05:59:00.319Z,26.67
2019-05-22T06:01:53.220Z,29.90
2019-05-22T06:04:42.488Z,31.63
2019-05-22T06:07:31.391Z,28.43
2019-05-22T06:11:05.932Z,32.17
2019-05-22T06:13:57.618Z,29.67
2019-05-22T06:17:50.650Z,26.83
2019-05-22T06:20:24.047Z,29.93
2019-05-22T06:23:52.445Z,28.40
2019-05-22T06:26:45.473Z,29.63
2019-05-22T06:29:17.700Z,30.83
2019-05-22T06:31:58.992Z,29.40
2019-05-22T06:34:29.398Z,27.87
2019-05-22T06:37:04.151Z,31.10
2019-05-22T06:39:35.359Z,25.87
2019-05-22T06:42:06.142Z,28.10
2019-05-22T06:44:42.105Z,23.77
2019-05-22T06:47:23.354Z,30.07
2019-05-22T06:50:00.803Z,29.00
2019-05-22T06:52:30.929Z,24.10
2019-05-22T06:55:03.378Z,24.53
2019-05-22T06:57:35.025Z,25.10
2019-05-22T07:00:21.620Z,21.67
2019-05-22T07:02:52.110Z,21.50
2019-05-22T07:05:22.947Z,24.13
2019-05-22T07:07:53.302Z,18.80
2019-05-22T07:10:24.833Z,19.30
2019-05-22T07:12:55.089Z,24.60
2019-05-22T07:15:36.328Z,23.10
2019-05-22T07:18:07.298Z,20.83
2019-05-22T07:20:39.978Z,21.70
2019-05-22T07:23:15.041Z,22.70
2019-05-22T07:25:46.431Z,20.17
2019-05-22T07:28:19.389Z,22.67
2019-05-22T07:30:50.687Z,24.17
2019-05-22T07:33:23.779Z,23.83
2019-05-22T07:36:09.390Z,23.03
2019-05-22T07:38:27.370Z,28.30
2019-05-22T07:40:58.470Z,28.10
2019-05-22T07:43:28.640Z,22.27
2019-05-22T07:45:58.906Z,22.10
2019-05-22T07:48:30.949Z,21.20
2019-05-22T07:51:04.077Z,22.20
2019-05-22T07:53:34.420Z,21.40
2019-05-22T07:56:08.588Z,19.93
2019-05-22T07:58:38.977Z,18.63
2019-05-22T08:01:11.375Z,20.70
2019-05-22T08:03:44.655Z,20.60
2019-05-22T08:06:15.469Z,25.07
2019-05-22T08:08:46.882Z,23.73
2019-05-22T08:11:19.025Z,24.10
2019-05-22T08:13:50.689Z,22.73
2019-05-22T08:16:21.622Z,26.30
2019-05-22T08:18:52.432Z,25.67
2019-05-22T08:21:23.877Z,24.73
2019-05-22T08:23:55.898Z,25.77
2019-05-22T08:26:27.038Z,23.47
2019-05-22T08:28:58.468Z,28.33
2019-05-22T08:31:29.263Z,25.83
2019-05-22T08:34:00.559Z,23.33
2019-05-22T08:36:50.822Z,23.10
2019-05-22T08:39:40.474Z,26.77
2019-05-22T08:42:29.842Z,23.47
2019-05-22T08:45:20.522Z,24.60
2019-05-22T08:48:10.193Z,27.10
2019-05-22T08:51:00.286Z,27.23
2019-05-22T08:53:49.632Z,28.90
2019-05-22T08:56:41.202Z,22.63
2019-05-22T08:59:30.580Z,25.13
2019-05-22T09:02:20.311Z,24.27
2019-05-22T09:05:10.025Z,22.20
2019-05-22T09:07:59.419Z,24.43
2019-05-22T09:10:49.369Z,29.70
2019-05-22T09:13:38.960Z,25.43
2019-05-22T09:16:28.031Z,23.97
2019-05-22T09:19:17.454Z,24.27
2019-05-22T09:22:08.513Z,27.00
2019-05-22T09:24:58.447Z,24.30
2019-05-22T09:27:47.695Z,23.67
2019-05-22T09:30:36.732Z,24.27
2019-05-22T09:33:25.993Z,24.10
2019-05-22T09:36:16.178Z,20.17
2019-05-22T09:39:07.559Z,26.33
2019-05-22T09:41:56.698Z,24.10
2019-05-22T09:44:46.282Z,21.30
2019-05-22T09:47:36.369Z,22.67
2019-05-22T09:50:26.160Z,22.73
2019-05-22T09:53:16.511Z,21.90
2019-05-22T09:56:05.898Z,20.50
2019-05-22T09:58:55.242Z,17.53
2019-05-22T10:01:45.256Z,19.33
2019-05-22T10:04:34.683Z,18.97
2019-05-22T10:07:24.590Z,17.27
2019-05-22T10:10:13.891Z,15.80
2019-05-22T10:13:03.156Z,18.73
2019-05-22T10:15:52.692Z,16.27
2019-05-22T10:18:42.855Z,16.23
2019-05-22T10:21:32.397Z,19.83
2019-05-22T10:24:22.169Z,18.83
2019-05-22T10:27:13.317Z,17.50
2019-05-22T10:30:03.325Z,19.80
2019-05-22T10:32:52.235Z,20.30
2019-05-22T10:35:41.018Z,19.20
2019-05-22T10:38:30.551Z,17.57
2019-05-22T10:41:21.128Z,18.87
2019-05-22T10:44:11.020Z,18.23
2019-05-22T10:46:59.993Z,17.90
2019-05-22T10:49:49.730Z,20.03
2019-05-22T10:52:39.453Z,18.33
2019-05-22T10:55:29.044Z,19.23
2019-05-22T10:58:17.988Z,19.70
2019-05-22T11:01:09.056Z,19.30
2019-05-22T11:03:59.449Z,20.67
2019-05-22T11:06:48.831Z,19.70
2019-05-22T11:09:39.759Z,21.60
2019-05-22T11:12:29.121Z,22.57
2019-05-22T11:15:18.996Z,21.37
2019-05-22T11:18:08.414Z,21.50
2019-05-22T11:20:57.430Z,23.23
2019-05-22T11:23:51.856Z,23.30
2019-05-22T11:26:37.361Z,21.03
2019-05-22T11:29:26.469Z,22.07
2019-05-22T11:32:15.726Z,24.50
2019-05-22T11:35:05.475Z,18.87
2019-05-22T11:37:54.802Z,23.10
2019-05-22T11:40:43.841Z,23.77
2019-05-22T11:43:33.420Z,23.80
2019-05-22T11:46:22.805Z,21.03
2019-05-22T11:49:12.749Z,20.17
2019-05-22T11:52:02.568Z,21.87
2019-05-22T11:54:51.981Z,19.30
2019-05-22T11:57:42.839Z,26.47
2019-05-22T12:00:31.752Z,19.80
2019-05-22T12:03:22.846Z,21.17
2019-05-22T12:06:12.537Z,23.93
2019-05-22T12:09:01.379Z,20.20
2019-05-22T12:11:50.913Z,19.63
2019-05-22T12:14:40.060Z,24.87
2019-05-22T12:17:38.102Z,22.23
2019-05-22T12:20:21.635Z,22.60
2019-05-22T12:23:11.576Z,21.23
2019-05-22T12:26:01.195Z,22.03
2019-05-22T12:28:51.260Z,22.03
2019-05-22T12:31:40.332Z,21.10
2019-05-22T12:34:29.497Z,22.13
2019-05-22T12:37:19.062Z,26.77
2019-05-22T12:40:10.557Z,21.60
2019-05-22T12:43:00.512Z,20.80
2019-05-22T12:45:49.835Z,19.00
2019-05-22T12:48:40.880Z,20.63
2019-05-22T12:51:32.838Z,20.23
2019-05-22T12:54:21.930Z,23.13
2019-05-22T12:57:11.967Z,18.47
2019-05-22T13:00:03.014Z,21.47
2019-05-22T13:02:55.130Z,21.00
2019-05-22T13:05:45.261Z,18.47
2019-05-22T13:08:35.701Z,21.27
2019-05-22T13:11:26.095Z,17.40
2019-05-22T13:14:15.582Z,21.50
2019-05-22T13:17:05.616Z,18.77
2019-05-22T13:19:56.870Z,18.60
2019-05-22T13:22:48.311Z,17.43
2019-05-22T13:25:39.570Z,18.53
2019-05-22T13:28:30.381Z,19.83
2019-05-22T13:31:19.981Z,18.50
2019-05-22T13:34:11.313Z,17.60
2019-05-22T13:37:00.706Z,17.43
2019-05-22T13:39:51.054Z,17.73
2019-05-22T13:42:40.362Z,16.90
2019-05-22T13:45:30.659Z,19.40
2019-05-22T13:48:20.200Z,18.37
2019-05-22T13:51:09.355Z,19.50
2019-05-22T13:53:59.545Z,14.53
2019-05-22T13:56:49.333Z,15.90
2019-05-22T13:59:38.559Z,22.00
2019-05-22T14:02:28.803Z,14.77
2019-05-22T14:05:18.769Z,15.90
2019-05-22T14:08:09.471Z,17.53
2019-05-22T14:10:59.834Z,16.57
2019-05-22T14:13:50.127Z,14.57
2019-05-22T14:16:48.536Z,14.07
2019-05-22T16:43:47.211Z,14.60
2019-05-22T16:46:24.435Z,14.40
2019-05-22T16:49:16.624Z,14.03
2019-05-22T16:52:08.948Z,13.20
2019-05-22T16:54:59.775Z,14.00
2019-05-22T16:57:48.981Z,14.57
2019-05-22T17:00:37.991Z,13.30
2019-05-22T17:03:30.857Z,15.33
2019-05-22T17:06:22.165Z,12.60
2019-05-22T17:09:13.764Z,15.47
2019-05-22T17:12:07.371Z,15.27
2019-05-22T17:14:57.753Z,16.10
2019-05-22T17:17:48.076Z,16.07
2019-05-22T17:20:48.577Z,18.03
2019-05-22T17:23:42.846Z,17.30
2019-05-22T17:26:32.889Z,14.47
2019-05-22T17:29:21.909Z,20.20
2019-05-22T17:32:13.998Z,15.90
2019-05-22T17:35:09.237Z,16.80
2019-05-22T17:38:08.067Z,18.13
2019-05-22T17:41:01.460Z,17.67
2019-05-22T17:43:51.354Z,19.20
2019-05-22T17:46:44.604Z,18.63
2019-05-22T17:49:35.342Z,19.10
2019-05-22T17:52:26.115Z,21.30
2019-05-22T17:55:16.287Z,18.63
2019-05-22T17:58:06.117Z,19.00
2019-05-22T18:00:58.341Z,17.93
2019-05-22T18:03:48.027Z,17.50
2019-05-22T18:06:37.355Z,16.50
2019-05-22T18:09:26.958Z,14.80
2019-05-22T18:12:17.983Z,16.30
2019-05-22T18:15:10.113Z,17.83
2019-05-22T18:17:59.954Z,18.87
2019-05-22T18:20:50.204Z,18.43
2019-05-22T18:23:40.111Z,18.13
2019-05-22T18:26:30.148Z,15.03
2019-05-22T18:29:19.311Z,14.67
2019-05-22T18:32:08.725Z,16.40
2019-05-22T18:34:39.053Z,16.33
2019-05-22T18:37:09.892Z,17.60
2019-05-22T18:39:40.546Z,16.63
2019-05-22T18:42:11.440Z,13.97
2019-05-22T18:44:41.730Z,20.87
2019-05-22T18:47:13.259Z,16.43
2019-05-22T18:49:43.701Z,16.50
2019-05-22T18:52:14.029Z,13.67
2019-05-22T18:54:44.322Z,15.40
2019-05-22T18:57:14.997Z,16.80
2019-05-22T18:59:45.552Z,16.03
2019-05-22T19:02:17.091Z,17.60
2019-05-22T19:04:47.316Z,12.87
2019-05-22T19:07:17.850Z,14.03
2019-05-22T19:09:48.107Z,21.90
2019-05-22T19:12:19.417Z,20.17
2019-05-22T19:14:49.855Z,14.23
2019-05-22T19:17:20.296Z,17.83
2019-05-22T19:19:51.356Z,15.17
2019-05-22T19:22:22.118Z,18.53
2019-05-22T19:24:52.934Z,16.80
2019-05-22T19:27:23.327Z,15.50
2019-05-22T19:29:53.625Z,13.97
2019-05-22T19:32:24.041Z,13.53
2019-05-22T19:34:54.549Z,15.23
2019-05-22T19:37:25.406Z,17.60
2019-05-22T19:39:56.033Z,15.77
2019-05-22T19:42:26.021Z,16.63
2019-05-22T19:44:57.672Z,16.37
2019-05-22T19:47:31.295Z,15.17
2019-05-22T19:50:04.422Z,23.43
2019-05-22T19:53:15.791Z,19.30
2019-05-22T19:55:52.941Z,17.20
2019-05-22T19:58:42.184Z,17.57
2019-05-22T20:01:32.130Z,22.33
2019-05-22T20:04:20.981Z,18.80
2019-05-22T20:07:11.087Z,15.43
2019-05-22T20:10:02.429Z,17.97
2019-05-22T20:12:52.094Z,19.40
2019-05-22T20:15:42.303Z,19.43
2019-05-22T20:18:31.127Z,16.50
2019-05-22T20:21:20.737Z,17.30
2019-05-22T20:24:10.281Z,15.57
2019-05-22T20:27:00.025Z,18.30
2019-05-22T20:29:49.964Z,15.37
2019-05-22T20:32:39.784Z,18.73
2019-05-22T20:35:29.245Z,27.13
2019-05-22T20:38:19.093Z,18.03
2019-05-22T20:41:08.751Z,18.97
2019-05-22T20:44:01.251Z,18.53
2019-05-22T20:46:50.870Z,23.00
2019-05-22T20:49:41.991Z,17.13
2019-05-22T20:52:32.804Z,18.97
2019-05-22T20:55:22.663Z,19.80
2019-05-22T20:58:13.491Z,20.17
2019-05-22T21:01:04.997Z,21.77
2019-05-22T21:03:54.378Z,21.77
2019-05-22T21:06:51.415Z,19.43
2019-05-22T21:09:42.002Z,23.60
2019-05-22T21:12:36.077Z,20.83
2019-05-22T21:15:27.350Z,21.40
2019-05-22T21:18:18.755Z,20.53
2019-05-22T21:21:09.389Z,20.17
2019-05-22T21:24:10.544Z,20.27
2019-05-22T21:26:49.846Z,26.67
2019-05-22T21:29:39.281Z,29.97
2019-05-22T21:32:29.134Z,27.37
2019-05-22T21:35:19.441Z,29.30
2019-05-22T21:38:11.972Z,26.33
2019-05-22T21:41:02.110Z,30.43
2019-05-22T21:43:52.602Z,27.50
2019-05-22T21:46:42.895Z,28.37
2019-05-22T21:49:32.163Z,30.17
2019-05-22T21:52:21.876Z,29.83
2019-05-22T21:55:13.362Z,30.07
2019-05-22T21:58:02.837Z,32.23
2019-05-22T22:01:14.795Z,30.80
2019-05-22T22:04:26.109Z,30.93
2019-05-22T22:07:15.349Z,27.47
2019-05-22T22:10:06.804Z,32.50
2019-05-22T22:12:58.088Z,33.60
2019-05-22T22:15:49.185Z,36.90
2019-05-22T22:18:40.019Z,26.97
2019-05-22T22:21:30.039Z,33.40
2019-05-22T22:24:19.965Z,29.43
2019-05-22T22:27:10.353Z,38.43
2019-05-22T22:30:02.410Z,35.80
2019-05-22T22:33:57.828Z,34.63
2019-05-22T22:36:39.513Z,36.50
2019-05-22T22:39:31.598Z,45.57
2019-05-22T22:42:22.306Z,42.17
2019-05-22T22:45:20.197Z,40.63
2019-05-22T22:48:09.848Z,37.00
2019-05-22T22:51:00.396Z,35.47
2019-05-22T22:53:50.053Z,41.67
2019-05-22T22:56:39.080Z,38.33
2019-05-22T22:59:28.362Z,40.40
2019-05-22T23:02:20.006Z,40.80
2019-05-22T23:05:11.966Z,40.57
2019-05-22T23:08:02.244Z,41.80
2019-05-22T23:10:51.953Z,40.87
2019-05-22T23:13:41.757Z,42.93
2019-05-22T23:16:31.066Z,45.00
2019-05-22T23:19:47.263Z,45.07
2019-05-22T23:22:34.599Z,42.67
2019-05-22T23:25:23.827Z,46.87
2019-05-22T23:28:13.094Z,50.40
2019-05-22T23:31:03.830Z,43.77
2019-05-22T23:33:53.345Z,47.20
2019-05-22T23:36:42.875Z,45.73
2019-05-22T23:39:33.654Z,48.00
2019-05-22T23:42:28.537Z,47.30
2019-05-22T23:45:20.374Z,44.10
2019-05-22T23:48:14.716Z,45.20
2019-05-22T23:51:04.906Z,52.97
2019-05-22T23:53:55.978Z,51.77
2019-05-22T23:56:45.664Z,50.33
2019-05-22T23:59:36.632Z,49.97
